sensor_id;sensor_type;location;lat;lon;timestamp;P1;durP1;ratioP1;P2;durP2;ratioP2
49416;SDS011;35290;39.550;8.786;2022-09-13T00:00:33;14.27;;;4.93;;
49416;SDS011;35290;39.550;8.786;2022-09-13T00:02:59;10.07;;;4.97;;
49416;SDS011;35290;39.550;8.786;2022-09-13T00:05:25;11.82;;;4.68;;
49416;SDS011;35290;39.550;8.786;2022-09-13T00:07:51;10.60;;;5.05;;
49416;SDS011;35290;39.550;8.786;2022-09-13T00:10:16;13.98;;;4.95;;
49416;SDS011;35290;39.550;8.786;2022-09-13T00:12:42;10.15;;;4.75;;
49416;SDS011;35290;39.550;8.786;2022-09-13T00:15:07;13.90;;;4.68;;
49416;SDS011;35290;39.550;8.786;2022-09-13T00:17:34;13.63;;;4.75;;
49416;SDS011;35290;39.550;8.786;2022-09-13T00:19:59;12.80;;;4.75;;
49416;SDS011;35290;39.550;8.786;2022-09-13T00:22:25;16.23;;;5.13;;
49416;SDS011;35290;39.550;8.786;2022-09-13T00:24:51;11.35;;;4.60;;
49416;SDS011;35290;39.550;8.786;2022-09-13T00:27:17;10.35;;;5.13;;
49416;SDS011;35290;39.550;8.786;2022-09-13T00:29:43;13.85;;;6.13;;
49416;SDS011;35290;39.550;8.786;2022-09-13T00:32:08;14.70;;;5.82;;
49416;SDS011;35290;39.550;8.786;2022-09-13T00:34:33;13.13;;;5.55;;
49416;SDS011;35290;39.550;8.786;2022-09-13T00:36:59;13.60;;;5.50;;
49416;SDS011;35290;39.550;8.786;2022-09-13T00:39:24;14.63;;;5.50;;
49416;SDS011;35290;39.550;8.786;2022-09-13T00:41:50;12.38;;;5.20;;
49416;SDS011;35290;39.550;8.786;2022-09-13T00:50:17;15.95;;;7.10;;
49416;SDS011;35290;39.550;8.786;2022-09-13T00:54:00;14.98;;;7.55;;
49416;SDS011;35290;39.550;8.786;2022-09-13T00:55:56;18.13;;;8.35;;
49416;SDS011;35290;39.550;8.786;2022-09-13T00:58:28;18.60;;;8.68;;
49416;SDS011;35290;39.550;8.786;2022-09-13T01:00:56;17.73;;;8.77;;
49416;SDS011;35290;39.550;8.786;2022-09-13T01:03:26;15.00;;;8.00;;
49416;SDS011;35290;39.550;8.786;2022-09-13T01:06:17;15.00;;;7.30;;
49416;SDS011;35290;39.550;8.786;2022-09-13T01:08:46;11.65;;;6.30;;
49416;SDS011;35290;39.550;8.786;2022-09-13T01:11:24;14.45;;;6.43;;
49416;SDS011;35290;39.550;8.786;2022-09-13T01:13:54;9.95;;;5.78;;
49416;SDS011;35290;39.550;8.786;2022-09-13T01:16:20;13.50;;;6.35;;
49416;SDS011;35290;39.550;8.786;2022-09-13T01:18:45;12.90;;;6.85;;
49416;SDS011;35290;39.550;8.786;2022-09-13T01:26:40;11.65;;;6.15;;
49416;SDS011;35290;39.550;8.786;2022-09-13T01:32:03;15.50;;;5.68;;
49416;SDS011;35290;39.550;8.786;2022-09-13T01:37:53;11.05;;;5.40;;
49416;SDS011;35290;39.550;8.786;2022-09-13T01:45:20;10.95;;;5.35;;
49416;SDS011;35290;39.550;8.786;2022-09-13T01:50:29;11.85;;;4.88;;
49416;SDS011;35290;39.550;8.786;2022-09-13T01:55:39;10.93;;;4.70;;
49416;SDS011;35290;39.550;8.786;2022-09-13T02:00:42;11.63;;;4.60;;
49416;SDS011;35290;39.550;8.786;2022-09-13T02:03:13;7.43;;;3.88;;
49416;SDS011;35290;39.550;8.786;2022-09-13T02:05:50;12.48;;;4.20;;
49416;SDS011;35290;39.550;8.786;2022-09-13T02:08:31;9.85;;;3.70;;
49416;SDS011;35290;39.550;8.786;2022-09-13T02:11:08;11.07;;;3.75;;
49416;SDS011;35290;39.550;8.786;2022-09-13T02:13:36;8.57;;;3.50;;
49416;SDS011;35290;39.550;8.786;2022-09-13T02:16:08;12.20;;;3.70;;
49416;SDS011;35290;39.550;8.786;2022-09-13T02:18:40;9.40;;;3.92;;
49416;SDS011;35290;39.550;8.786;2022-09-13T02:21:12;6.32;;;3.30;;
49416;SDS011;35290;39.550;8.786;2022-09-13T02:23:40;9.52;;;4.30;;
49416;SDS011;35290;39.550;8.786;2022-09-13T02:26:28;10.02;;;4.20;;
49416;SDS011;35290;39.550;8.786;2022-09-13T02:28:54;9.43;;;4.85;;
49416;SDS011;35290;39.550;8.786;2022-09-13T02:31:27;12.57;;;6.05;;
49416;SDS011;35290;39.550;8.786;2022-09-13T02:33:58;10.85;;;5.75;;
49416;SDS011;35290;39.550;8.786;2022-09-13T02:36:28;11.25;;;5.78;;
49416;SDS011;35290;39.550;8.786;2022-09-13T02:38:58;11.98;;;5.30;;
49416;SDS011;35290;39.550;8.786;2022-09-13T02:47:13;11.02;;;5.80;;
49416;SDS011;35290;39.550;8.786;2022-09-13T02:55:15;11.25;;;4.43;;
49416;SDS011;35290;39.550;8.786;2022-09-13T02:58:01;9.60;;;4.10;;
49416;SDS011;35290;39.550;8.786;2022-09-13T03:00:39;18.02;;;4.53;;
49416;SDS011;35290;39.550;8.786;2022-09-13T03:03:06;9.93;;;5.22;;
49416;SDS011;35290;39.550;8.786;2022-09-13T03:05:34;7.22;;;4.20;;
49416;SDS011;35290;39.550;8.786;2022-09-13T03:08:00;12.98;;;4.80;;
49416;SDS011;35290;39.550;8.786;2022-09-13T03:10:28;9.30;;;5.32;;
49416;SDS011;35290;39.550;8.786;2022-09-13T03:13:15;20.13;;;6.38;;
49416;SDS011;35290;39.550;8.786;2022-09-13T03:29:26;10.07;;;3.22;;
49416;SDS011;35290;39.550;8.786;2022-09-13T03:35:06;8.93;;;2.65;;
49416;SDS011;35290;39.550;8.786;2022-09-13T03:40:20;10.90;;;2.50;;
49416;SDS011;35290;39.550;8.786;2022-09-13T03:43:01;128.35;;;9.45;;
49416;SDS011;35290;39.550;8.786;2022-09-13T03:45:32;14.95;;;3.00;;
49416;SDS011;35290;39.550;8.786;2022-09-13T03:48:01;11.25;;;2.60;;
49416;SDS011;35290;39.550;8.786;2022-09-13T03:50:27;10.73;;;2.70;;
49416;SDS011;35290;39.550;8.786;2022-09-13T03:52:58;8.55;;;2.28;;
49416;SDS011;35290;39.550;8.786;2022-09-13T03:55:25;10.32;;;2.75;;
49416;SDS011;35290;39.550;8.786;2022-09-13T03:57:52;9.77;;;2.60;;
49416;SDS011;35290;39.550;8.786;2022-09-13T04:00:17;12.05;;;2.90;;
49416;SDS011;35290;39.550;8.786;2022-09-13T04:02:43;9.10;;;2.67;;
49416;SDS011;35290;39.550;8.786;2022-09-13T04:05:08;13.23;;;2.55;;
49416;SDS011;35290;39.550;8.786;2022-09-13T04:07:34;10.88;;;2.25;;
49416;SDS011;35290;39.550;8.786;2022-09-13T04:10:00;6.80;;;2.30;;
49416;SDS011;35290;39.550;8.786;2022-09-13T04:12:25;12.70;;;2.50;;
49416;SDS011;35290;39.550;8.786;2022-09-13T04:14:52;8.02;;;2.47;;
49416;SDS011;35290;39.550;8.786;2022-09-13T04:17:17;9.35;;;2.58;;
49416;SDS011;35290;39.550;8.786;2022-09-13T04:19:43;8.52;;;2.53;;
49416;SDS011;35290;39.550;8.786;2022-09-13T04:22:09;14.82;;;2.90;;
49416;SDS011;35290;39.550;8.786;2022-09-13T04:24:35;7.82;;;2.55;;
49416;SDS011;35290;39.550;8.786;2022-09-13T04:27:01;7.70;;;2.20;;
49416;SDS011;35290;39.550;8.786;2022-09-13T04:29:27;10.52;;;2.45;;
49416;SDS011;35290;39.550;8.786;2022-09-13T04:31:53;17.80;;;2.88;;
49416;SDS011;35290;39.550;8.786;2022-09-13T04:34:19;13.63;;;2.13;;
49416;SDS011;35290;39.550;8.786;2022-09-13T04:36:47;9.43;;;2.50;;
49416;SDS011;35290;39.550;8.786;2022-09-13T04:39:13;10.73;;;2.50;;
49416;SDS011;35290;39.550;8.786;2022-09-13T04:41:42;9.13;;;2.00;;
49416;SDS011;35290;39.550;8.786;2022-09-13T04:44:10;8.80;;;2.25;;
49416;SDS011;35290;39.550;8.786;2022-09-13T04:46:35;11.82;;;1.88;;
49416;SDS011;35290;39.550;8.786;2022-09-13T04:49:01;20.33;;;3.10;;
49416;SDS011;35290;39.550;8.786;2022-09-13T04:51:27;11.57;;;2.70;;
49416;SDS011;35290;39.550;8.786;2022-09-13T04:53:52;23.60;;;2.40;;
49416;SDS011;35290;39.550;8.786;2022-09-13T04:56:19;10.00;;;2.30;;
49416;SDS011;35290;39.550;8.786;2022-09-13T04:58:47;8.80;;;2.40;;
49416;SDS011;35290;39.550;8.786;2022-09-13T05:01:13;12.60;;;2.47;;
49416;SDS011;35290;39.550;8.786;2022-09-13T05:03:38;16.75;;;2.78;;
49416;SDS011;35290;39.550;8.786;2022-09-13T05:06:05;12.48;;;2.63;;
49416;SDS011;35290;39.550;8.786;2022-09-13T05:08:31;12.88;;;3.47;;
49416;SDS011;35290;39.550;8.786;2022-09-13T05:10:57;12.52;;;2.50;;
49416;SDS011;35290;39.550;8.786;2022-09-13T05:13:24;8.23;;;2.33;;
49416;SDS011;35290;39.550;8.786;2022-09-13T05:16:02;9.07;;;2.50;;
49416;SDS011;35290;39.550;8.786;2022-09-13T05:18:29;20.58;;;3.20;;
49416;SDS011;35290;39.550;8.786;2022-09-13T05:20:57;19.27;;;3.40;;
49416;SDS011;35290;39.550;8.786;2022-09-13T05:23:23;6.93;;;2.30;;
49416;SDS011;35290;39.550;8.786;2022-09-13T05:28:19;14.38;;;2.55;;
49416;SDS011;35290;39.550;8.786;2022-09-13T05:30:52;18.08;;;2.83;;
49416;SDS011;35290;39.550;8.786;2022-09-13T05:33:21;13.90;;;3.08;;
49416;SDS011;35290;39.550;8.786;2022-09-13T05:35:47;11.50;;;2.33;;
49416;SDS011;35290;39.550;8.786;2022-09-13T05:38:14;13.10;;;2.55;;
49416;SDS011;35290;39.550;8.786;2022-09-13T05:40:39;14.63;;;2.58;;
49416;SDS011;35290;39.550;8.786;2022-09-13T05:43:05;13.95;;;2.05;;
49416;SDS011;35290;39.550;8.786;2022-09-13T05:45:30;9.85;;;3.05;;
49416;SDS011;35290;39.550;8.786;2022-09-13T05:47:56;9.75;;;2.45;;
49416;SDS011;35290;39.550;8.786;2022-09-13T05:50:22;8.27;;;2.35;;
49416;SDS011;35290;39.550;8.786;2022-09-13T05:52:50;13.25;;;2.75;;
49416;SDS011;35290;39.550;8.786;2022-09-13T05:55:19;11.18;;;2.63;;
49416;SDS011;35290;39.550;8.786;2022-09-13T05:57:46;11.57;;;2.38;;
49416;SDS011;35290;39.550;8.786;2022-09-13T06:00:12;16.70;;;2.95;;
49416;SDS011;35290;39.550;8.786;2022-09-13T06:02:38;14.95;;;3.03;;
49416;SDS011;35290;39.550;8.786;2022-09-13T06:05:04;15.10;;;2.72;;
49416;SDS011;35290;39.550;8.786;2022-09-13T06:07:30;16.85;;;2.90;;
49416;SDS011;35290;39.550;8.786;2022-09-13T06:09:55;17.95;;;2.25;;
49416;SDS011;35290;39.550;8.786;2022-09-13T06:12:22;15.38;;;2.80;;
49416;SDS011;35290;39.550;8.786;2022-09-13T06:14:48;20.02;;;3.00;;
49416;SDS011;35290;39.550;8.786;2022-09-13T06:17:13;15.98;;;2.70;;
49416;SDS011;35290;39.550;8.786;2022-09-13T06:19:39;10.48;;;2.55;;
49416;SDS011;35290;39.550;8.786;2022-09-13T06:22:04;13.13;;;2.65;;
49416;SDS011;35290;39.550;8.786;2022-09-13T06:24:30;14.38;;;2.47;;
49416;SDS011;35290;39.550;8.786;2022-09-13T06:26:56;16.50;;;2.70;;
49416;SDS011;35290;39.550;8.786;2022-09-13T06:29:22;16.15;;;2.67;;
49416;SDS011;35290;39.550;8.786;2022-09-13T06:31:47;17.55;;;2.63;;
49416;SDS011;35290;39.550;8.786;2022-09-13T06:34:13;16.27;;;2.72;;
49416;SDS011;35290;39.550;8.786;2022-09-13T06:36:40;18.08;;;2.60;;
49416;SDS011;35290;39.550;8.786;2022-09-13T06:39:06;10.68;;;2.30;;
49416;SDS011;35290;39.550;8.786;2022-09-13T06:41:32;11.90;;;2.42;;
49416;SDS011;35290;39.550;8.786;2022-09-13T06:43:58;11.07;;;2.25;;
49416;SDS011;35290;39.550;8.786;2022-09-13T06:46:25;14.95;;;2.40;;
49416;SDS011;35290;39.550;8.786;2022-09-13T06:48:52;16.80;;;3.53;;
49416;SDS011;35290;39.550;8.786;2022-09-13T06:51:19;11.40;;;3.10;;
49416;SDS011;35290;39.550;8.786;2022-09-13T06:53:46;19.38;;;3.03;;
49416;SDS011;35290;39.550;8.786;2022-09-13T06:56:14;19.73;;;2.58;;
49416;SDS011;35290;39.550;8.786;2022-09-13T06:58:42;21.67;;;2.90;;
49416;SDS011;35290;39.550;8.786;2022-09-13T07:03:41;16.77;;;3.05;;
49416;SDS011;35290;39.550;8.786;2022-09-13T07:06:12;16.70;;;2.50;;
49416;SDS011;35290;39.550;8.786;2022-09-13T07:08:42;18.05;;;2.88;;
49416;SDS011;35290;39.550;8.786;2022-09-13T07:11:09;15.48;;;2.50;;
49416;SDS011;35290;39.550;8.786;2022-09-13T07:13:35;12.38;;;2.15;;
49416;SDS011;35290;39.550;8.786;2022-09-13T07:16:01;18.85;;;2.60;;
49416;SDS011;35290;39.550;8.786;2022-09-13T07:18:36;10.88;;;2.42;;
49416;SDS011;35290;39.550;8.786;2022-09-13T07:21:06;11.98;;;2.85;;
49416;SDS011;35290;39.550;8.786;2022-09-13T07:23:36;15.20;;;2.78;;
49416;SDS011;35290;39.550;8.786;2022-09-13T07:26:04;9.98;;;2.20;;
49416;SDS011;35290;39.550;8.786;2022-09-13T07:28:33;17.25;;;2.92;;
49416;SDS011;35290;39.550;8.786;2022-09-13T07:31:04;11.18;;;3.00;;
49416;SDS011;35290;39.550;8.786;2022-09-13T07:33:36;12.88;;;2.53;;
49416;SDS011;35290;39.550;8.786;2022-09-13T07:36:03;11.38;;;2.30;;
49416;SDS011;35290;39.550;8.786;2022-09-13T07:38:39;17.92;;;2.60;;
49416;SDS011;35290;39.550;8.786;2022-09-13T07:41:06;10.63;;;2.30;;
49416;SDS011;35290;39.550;8.786;2022-09-13T07:43:35;14.80;;;2.35;;
49416;SDS011;35290;39.550;8.786;2022-09-13T07:46:02;13.88;;;2.10;;
49416;SDS011;35290;39.550;8.786;2022-09-13T07:48:30;9.48;;;2.00;;
49416;SDS011;35290;39.550;8.786;2022-09-13T07:53:29;13.40;;;2.28;;
49416;SDS011;35290;39.550;8.786;2022-09-13T07:55:59;8.10;;;2.35;;
49416;SDS011;35290;39.550;8.786;2022-09-13T07:58:34;10.15;;;1.90;;
49416;SDS011;35290;39.550;8.786;2022-09-13T08:01:16;10.63;;;2.28;;
49416;SDS011;35290;39.550;8.786;2022-09-13T08:03:44;7.82;;;2.13;;
49416;SDS011;35290;39.550;8.786;2022-09-13T08:06:10;10.80;;;2.15;;
49416;SDS011;35290;39.550;8.786;2022-09-13T08:08:36;17.20;;;1.90;;
49416;SDS011;35290;39.550;8.786;2022-09-13T08:11:02;10.43;;;2.13;;
49416;SDS011;35290;39.550;8.786;2022-09-13T08:13:29;10.40;;;1.67;;
49416;SDS011;35290;39.550;8.786;2022-09-13T08:15:59;11.00;;;2.25;;
49416;SDS011;35290;39.550;8.786;2022-09-13T08:18:26;17.77;;;1.90;;
49416;SDS011;35290;39.550;8.786;2022-09-13T08:20:54;10.43;;;1.50;;
49416;SDS011;35290;39.550;8.786;2022-09-13T08:23:23;13.57;;;1.70;;
49416;SDS011;35290;39.550;8.786;2022-09-13T08:25:49;9.63;;;1.70;;
49416;SDS011;35290;39.550;8.786;2022-09-13T08:28:16;4.45;;;1.15;;
49416;SDS011;35290;39.550;8.786;2022-09-13T08:30:42;7.47;;;1.42;;
49416;SDS011;35290;39.550;8.786;2022-09-13T08:33:09;9.85;;;1.95;;
49416;SDS011;35290;39.550;8.786;2022-09-13T08:35:35;11.95;;;1.63;;
49416;SDS011;35290;39.550;8.786;2022-09-13T08:38:02;12.60;;;2.33;;
49416;SDS011;35290;39.550;8.786;2022-09-13T08:40:42;10.57;;;1.60;;
49416;SDS011;35290;39.550;8.786;2022-09-13T08:45:49;10.60;;;2.22;;
49416;SDS011;35290;39.550;8.786;2022-09-13T08:48:17;10.73;;;1.83;;
49416;SDS011;35290;39.550;8.786;2022-09-13T08:50:46;6.95;;;1.60;;
49416;SDS011;35290;39.550;8.786;2022-09-13T08:56:22;16.17;;;1.85;;
49416;SDS011;35290;39.550;8.786;2022-09-13T09:04:30;9.48;;;1.83;;
49416;SDS011;35290;39.550;8.786;2022-09-13T09:07:30;12.02;;;1.60;;
49416;SDS011;35290;39.550;8.786;2022-09-13T09:10:03;10.60;;;1.40;;
49416;SDS011;35290;39.550;8.786;2022-09-13T09:20:22;6.93;;;1.25;;
49416;SDS011;35290;39.550;8.786;2022-09-13T09:22:50;6.20;;;1.50;;
49416;SDS011;35290;39.550;8.786;2022-09-13T09:25:19;12.10;;;1.30;;
49416;SDS011;35290;39.550;8.786;2022-09-13T09:27:47;11.18;;;1.60;;
49416;SDS011;35290;39.550;8.786;2022-09-13T09:30:13;3.97;;;1.30;;
49416;SDS011;35290;39.550;8.786;2022-09-13T09:32:43;15.63;;;1.25;;
49416;SDS011;35290;39.550;8.786;2022-09-13T09:38:18;6.32;;;1.10;;
49416;SDS011;35290;39.550;8.786;2022-09-13T09:40:48;11.95;;;1.70;;
49416;SDS011;35290;39.550;8.786;2022-09-13T09:43:25;10.52;;;1.50;;
49416;SDS011;35290;39.550;8.786;2022-09-13T09:45:53;11.20;;;1.58;;
49416;SDS011;35290;39.550;8.786;2022-09-13T09:48:23;12.65;;;1.80;;
49416;SDS011;35290;39.550;8.786;2022-09-13T09:50:55;7.55;;;1.30;;
49416;SDS011;35290;39.550;8.786;2022-09-13T09:53:26;22.48;;;1.70;;
49416;SDS011;35290;39.550;8.786;2022-09-13T09:58:47;12.48;;;1.23;;
49416;SDS011;35290;39.550;8.786;2022-09-13T10:01:18;9.25;;;1.40;;
49416;SDS011;35290;39.550;8.786;2022-09-13T10:06:36;9.90;;;1.70;;
49416;SDS011;35290;39.550;8.786;2022-09-13T10:09:06;6.40;;;1.50;;
49416;SDS011;35290;39.550;8.786;2022-09-13T10:11:38;6.10;;;1.00;;
49416;SDS011;35290;39.550;8.786;2022-09-13T10:17:17;7.85;;;1.20;;
49416;SDS011;35290;39.550;8.786;2022-09-13T10:19:53;5.60;;;1.00;;
49416;SDS011;35290;39.550;8.786;2022-09-13T10:22:24;5.03;;;1.00;;
49416;SDS011;35290;39.550;8.786;2022-09-13T10:27:56;12.20;;;1.55;;
49416;SDS011;35290;39.550;8.786;2022-09-13T10:30:28;6.80;;;1.63;;
49416;SDS011;35290;39.550;8.786;2022-09-13T10:32:58;6.28;;;1.27;;
49416;SDS011;35290;39.550;8.786;2022-09-13T10:35:26;4.72;;;0.95;;
49416;SDS011;35290;39.550;8.786;2022-09-13T10:37:53;3.95;;;0.90;;
49416;SDS011;35290;39.550;8.786;2022-09-13T10:40:32;7.93;;;1.40;;
49416;SDS011;35290;39.550;8.786;2022-09-13T10:42:58;5.35;;;1.10;;
49416;SDS011;35290;39.550;8.786;2022-09-13T10:45:27;10.98;;;1.67;;
49416;SDS011;35290;39.550;8.786;2022-09-13T10:48:02;3.50;;;1.38;;
49416;SDS011;35290;39.550;8.786;2022-09-13T10:50:30;5.90;;;1.30;;
49416;SDS011;35290;39.550;8.786;2022-09-13T10:52:56;6.40;;;1.23;;
49416;SDS011;35290;39.550;8.786;2022-09-13T11:09:05;7.95;;;1.48;;
49416;SDS011;35290;39.550;8.786;2022-09-13T11:11:53;9.27;;;1.10;;
49416;SDS011;35290;39.550;8.786;2022-09-13T11:14:49;3.72;;;0.95;;
49416;SDS011;35290;39.550;8.786;2022-09-13T11:33:48;44.13;;;3.15;;
49416;SDS011;35290;39.550;8.786;2022-09-13T11:50:14;6.93;;;1.13;;
49416;SDS011;35290;39.550;8.786;2022-09-13T11:58:02;6.50;;;1.67;;
49416;SDS011;35290;39.550;8.786;2022-09-13T12:00:44;7.50;;;1.98;;
49416;SDS011;35290;39.550;8.786;2022-09-13T12:06:11;31.25;;;2.80;;
49416;SDS011;35290;39.550;8.786;2022-09-13T12:08:41;11.80;;;1.80;;
49416;SDS011;35290;39.550;8.786;2022-09-13T12:13:50;6.43;;;1.20;;
49416;SDS011;35290;39.550;8.786;2022-09-13T12:16:21;5.53;;;1.10;;
49416;SDS011;35290;39.550;8.786;2022-09-13T12:18:50;5.93;;;1.20;;
49416;SDS011;35290;39.550;8.786;2022-09-13T12:21:22;8.43;;;1.40;;
49416;SDS011;35290;39.550;8.786;2022-09-13T12:29:17;11.88;;;1.70;;
49416;SDS011;35290;39.550;8.786;2022-09-13T12:31:44;9.48;;;1.60;;
49416;SDS011;35290;39.550;8.786;2022-09-13T12:34:13;6.13;;;1.38;;
49416;SDS011;35290;39.550;8.786;2022-09-13T12:39:57;7.25;;;1.33;;
49416;SDS011;35290;39.550;8.786;2022-09-13T13:03:04;9.45;;;1.15;;
49416;SDS011;35290;39.550;8.786;2022-09-13T13:12:02;6.20;;;1.23;;
49416;SDS011;35290;39.550;8.786;2022-09-13T13:17:45;11.48;;;1.85;;
49416;SDS011;35290;39.550;8.786;2022-09-13T13:23:34;8.43;;;1.65;;
49416;SDS011;35290;39.550;8.786;2022-09-13T13:29:20;17.23;;;1.98;;
49416;SDS011;35290;39.550;8.786;2022-09-13T13:41:28;12.30;;;1.45;;
49416;SDS011;35290;39.550;8.786;2022-09-13T13:46:52;10.38;;;1.50;;
49416;SDS011;35290;39.550;8.786;2022-09-13T13:54:59;3.97;;;1.00;;
49416;SDS011;35290;39.550;8.786;2022-09-13T14:00:21;17.70;;;1.58;;
49416;SDS011;35290;39.550;8.786;2022-09-13T14:05:29;9.20;;;1.40;;
49416;SDS011;35290;39.550;8.786;2022-09-13T14:13:49;9.82;;;1.40;;
49416;SDS011;35290;39.550;8.786;2022-09-13T14:19:46;9.57;;;1.20;;
49416;SDS011;35290;39.550;8.786;2022-09-13T14:24:53;9.85;;;1.23;;
49416;SDS011;35290;39.550;8.786;2022-09-13T14:29:55;8.98;;;1.40;;
49416;SDS011;35290;39.550;8.786;2022-09-13T14:32:29;14.45;;;1.30;;
49416;SDS011;35290;39.550;8.786;2022-09-13T14:35:55;12.45;;;1.20;;
49416;SDS011;35290;39.550;8.786;2022-09-13T14:40:51;16.52;;;1.52;;
49416;SDS011;35290;39.550;8.786;2022-09-13T14:43:28;7.57;;;1.08;;
49416;SDS011;35290;39.550;8.786;2022-09-13T14:46:03;10.35;;;1.20;;
49416;SDS011;35290;39.550;8.786;2022-09-13T14:51:38;4.88;;;0.88;;
49416;SDS011;35290;39.550;8.786;2022-09-13T14:54:19;17.40;;;1.45;;
49416;SDS011;35290;39.550;8.786;2022-09-13T14:59:28;9.90;;;1.05;;
49416;SDS011;35290;39.550;8.786;2022-09-13T15:01:56;6.30;;;1.10;;
49416;SDS011;35290;39.550;8.786;2022-09-13T15:04:22;23.38;;;1.95;;
49416;SDS011;35290;39.550;8.786;2022-09-13T15:07:04;4.85;;;0.80;;
49416;SDS011;35290;39.550;8.786;2022-09-13T15:09:32;14.85;;;1.60;;
49416;SDS011;35290;39.550;8.786;2022-09-13T15:11:59;20.65;;;1.30;;
49416;SDS011;35290;39.550;8.786;2022-09-13T15:14:26;17.77;;;1.45;;
49416;SDS011;35290;39.550;8.786;2022-09-13T15:22:26;10.30;;;1.05;;
49416;SDS011;35290;39.550;8.786;2022-09-13T15:24:55;8.40;;;1.17;;
49416;SDS011;35290;39.550;8.786;2022-09-13T15:27:28;6.15;;;1.20;;
49416;SDS011;35290;39.550;8.786;2022-09-13T15:29:56;30.60;;;2.60;;
49416;SDS011;35290;39.550;8.786;2022-09-13T15:32:38;15.73;;;1.73;;
49416;SDS011;35290;39.550;8.786;2022-09-13T15:35:27;12.63;;;1.40;;
49416;SDS011;35290;39.550;8.786;2022-09-13T15:37:58;18.50;;;1.50;;
49416;SDS011;35290;39.550;8.786;2022-09-13T15:40:40;9.15;;;1.50;;
49416;SDS011;35290;39.550;8.786;2022-09-13T15:43:09;8.48;;;1.45;;
49416;SDS011;35290;39.550;8.786;2022-09-13T15:45:35;13.07;;;1.60;;
49416;SDS011;35290;39.550;8.786;2022-09-13T15:48:00;8.95;;;1.30;;
49416;SDS011;35290;39.550;8.786;2022-09-13T15:50:28;12.60;;;1.58;;
49416;SDS011;35290;39.550;8.786;2022-09-13T15:52:57;16.65;;;1.30;;
49416;SDS011;35290;39.550;8.786;2022-09-13T15:55:24;18.98;;;1.90;;
49416;SDS011;35290;39.550;8.786;2022-09-13T15:58:07;13.13;;;1.48;;
49416;SDS011;35290;39.550;8.786;2022-09-13T16:00:37;7.55;;;1.33;;
49416;SDS011;35290;39.550;8.786;2022-09-13T16:03:02;5.97;;;1.20;;
49416;SDS011;35290;39.550;8.786;2022-09-13T16:05:27;8.52;;;1.30;;
49416;SDS011;35290;39.550;8.786;2022-09-13T16:07:53;13.07;;;1.48;;
49416;SDS011;35290;39.550;8.786;2022-09-13T16:10:22;11.93;;;1.10;;
49416;SDS011;35290;39.550;8.786;2022-09-13T16:12:48;7.28;;;1.10;;
49416;SDS011;35290;39.550;8.786;2022-09-13T16:15:14;28.67;;;2.70;;
49416;SDS011;35290;39.550;8.786;2022-09-13T16:17:39;18.92;;;1.30;;
49416;SDS011;35290;39.550;8.786;2022-09-13T16:20:05;15.77;;;1.38;;
49416;SDS011;35290;39.550;8.786;2022-09-13T16:22:34;7.25;;;1.10;;
49416;SDS011;35290;39.550;8.786;2022-09-13T16:25:00;6.85;;;1.20;;
49416;SDS011;35290;39.550;8.786;2022-09-13T16:27:26;6.22;;;1.00;;
49416;SDS011;35290;39.550;8.786;2022-09-13T16:29:52;5.80;;;1.10;;
49416;SDS011;35290;39.550;8.786;2022-09-13T16:32:18;5.13;;;1.00;;
49416;SDS011;35290;39.550;8.786;2022-09-13T16:34:44;7.00;;;1.13;;
49416;SDS011;35290;39.550;8.786;2022-09-13T16:37:12;6.40;;;1.20;;
49416;SDS011;35290;39.550;8.786;2022-09-13T16:39:39;5.68;;;1.13;;
49416;SDS011;35290;39.550;8.786;2022-09-13T16:42:04;6.85;;;1.15;;
49416;SDS011;35290;39.550;8.786;2022-09-13T16:44:30;6.75;;;1.13;;
49416;SDS011;35290;39.550;8.786;2022-09-13T16:46:56;15.02;;;1.50;;
49416;SDS011;35290;39.550;8.786;2022-09-13T16:49:24;10.45;;;1.20;;
49416;SDS011;35290;39.550;8.786;2022-09-13T16:51:50;7.85;;;1.35;;
49416;SDS011;35290;39.550;8.786;2022-09-13T16:54:15;17.08;;;2.25;;
49416;SDS011;35290;39.550;8.786;2022-09-13T16:56:41;7.45;;;1.10;;
49416;SDS011;35290;39.550;8.786;2022-09-13T16:59:06;7.63;;;1.30;;
49416;SDS011;35290;39.550;8.786;2022-09-13T17:01:32;20.33;;;1.42;;
49416;SDS011;35290;39.550;8.786;2022-09-13T17:03:58;9.98;;;1.55;;
49416;SDS011;35290;39.550;8.786;2022-09-13T17:06:25;7.70;;;1.13;;
49416;SDS011;35290;39.550;8.786;2022-09-13T17:08:55;9.38;;;1.60;;
49416;SDS011;35290;39.550;8.786;2022-09-13T17:11:25;7.25;;;1.40;;
49416;SDS011;35290;39.550;8.786;2022-09-13T17:22:58;11.15;;;1.30;;
49416;SDS011;35290;39.550;8.786;2022-09-13T17:25:24;7.57;;;1.20;;
49416;SDS011;35290;39.550;8.786;2022-09-13T17:27:53;7.95;;;1.10;;
49416;SDS011;35290;39.550;8.786;2022-09-13T17:30:19;13.35;;;1.25;;
49416;SDS011;35290;39.550;8.786;2022-09-13T17:32:44;15.98;;;1.45;;
49416;SDS011;35290;39.550;8.786;2022-09-13T17:35:10;12.38;;;1.08;;
49416;SDS011;35290;39.550;8.786;2022-09-13T17:37:36;7.93;;;1.00;;
49416;SDS011;35290;39.550;8.786;2022-09-13T17:40:02;8.93;;;1.20;;
49416;SDS011;35290;39.550;8.786;2022-09-13T17:42:34;7.55;;;1.35;;
49416;SDS011;35290;39.550;8.786;2022-09-13T17:44:59;8.48;;;1.13;;
49416;SDS011;35290;39.550;8.786;2022-09-13T17:47:25;9.15;;;1.20;;
49416;SDS011;35290;39.550;8.786;2022-09-13T17:49:51;7.78;;;1.77;;
49416;SDS011;35290;39.550;8.786;2022-09-13T17:52:16;7.90;;;1.33;;
49416;SDS011;35290;39.550;8.786;2022-09-13T17:54:42;9.93;;;1.60;;
49416;SDS011;35290;39.550;8.786;2022-09-13T17:57:07;7.82;;;1.20;;
49416;SDS011;35290;39.550;8.786;2022-09-13T17:59:36;6.80;;;1.73;;
49416;SDS011;35290;39.550;8.786;2022-09-13T18:02:01;13.02;;;1.40;;
49416;SDS011;35290;39.550;8.786;2022-09-13T18:04:27;10.98;;;1.45;;
49416;SDS011;35290;39.550;8.786;2022-09-13T18:06:53;8.40;;;1.63;;
49416;SDS011;35290;39.550;8.786;2022-09-13T18:09:18;9.77;;;1.40;;
49416;SDS011;35290;39.550;8.786;2022-09-13T18:11:44;22.70;;;1.95;;
49416;SDS011;35290;39.550;8.786;2022-09-13T18:14:11;6.65;;;1.20;;
49416;SDS011;35290;39.550;8.786;2022-09-13T18:16:40;9.35;;;1.33;;
49416;SDS011;35290;39.550;8.786;2022-09-13T18:19:06;6.72;;;1.25;;
49416;SDS011;35290;39.550;8.786;2022-09-13T18:21:32;9.77;;;1.33;;
49416;SDS011;35290;39.550;8.786;2022-09-13T18:23:59;9.52;;;1.40;;
49416;SDS011;35290;39.550;8.786;2022-09-13T18:26:26;15.13;;;1.70;;
49416;SDS011;35290;39.550;8.786;2022-09-13T18:28:53;15.27;;;2.00;;
49416;SDS011;35290;39.550;8.786;2022-09-13T18:31:20;14.38;;;1.63;;
49416;SDS011;35290;39.550;8.786;2022-09-13T18:33:45;6.45;;;1.50;;
49416;SDS011;35290;39.550;8.786;2022-09-13T18:36:16;8.85;;;1.77;;
49416;SDS011;35290;39.550;8.786;2022-09-13T18:38:43;11.88;;;1.80;;
49416;SDS011;35290;39.550;8.786;2022-09-13T18:41:20;9.25;;;1.70;;
49416;SDS011;35290;39.550;8.786;2022-09-13T18:43:47;7.07;;;1.23;;
49416;SDS011;35290;39.550;8.786;2022-09-13T18:46:18;8.52;;;1.65;;
49416;SDS011;35290;39.550;8.786;2022-09-13T18:48:47;9.52;;;1.13;;
49416;SDS011;35290;39.550;8.786;2022-09-13T18:51:17;11.27;;;1.30;;
49416;SDS011;35290;39.550;8.786;2022-09-13T18:53:48;25.73;;;1.83;;
49416;SDS011;35290;39.550;8.786;2022-09-13T18:56:15;6.97;;;1.60;;
49416;SDS011;35290;39.550;8.786;2022-09-13T18:58:43;4.63;;;0.90;;
49416;SDS011;35290;39.550;8.786;2022-09-13T19:01:10;6.32;;;1.17;;
49416;SDS011;35290;39.550;8.786;2022-09-13T19:06:30;5.72;;;1.10;;
49416;SDS011;35290;39.550;8.786;2022-09-13T19:08:57;5.30;;;1.15;;
49416;SDS011;35290;39.550;8.786;2022-09-13T19:11:24;9.95;;;1.60;;
49416;SDS011;35290;39.550;8.786;2022-09-13T19:13:51;5.07;;;1.17;;
49416;SDS011;35290;39.550;8.786;2022-09-13T19:16:17;7.18;;;1.42;;
49416;SDS011;35290;39.550;8.786;2022-09-13T19:18:45;6.22;;;1.42;;